Terminal Aerodrome Forecast
Issued by NWS

Home | Current Version | Previous Version | Text Only | Print | Product List | Glossary On
Versions: 1 2 3 4 5 6 7 8 9 10 11 12 13 14 15 16 17 18 19 20 21 22 23 24 25 26 27
169
FTUS46 KMTR 262337
TAFSFO
TAF
KSFO 262337Z 2700/2806 30017G25KT P6SM SKC
     FM270400 28012KT P6SM FEW015
     FM270800 29007KT P6SM SCT015
     FM271100 28005KT P6SM BKN012
     FM271600 31005KT P6SM FEW012
     FM272100 30017G22KT P6SM SKC
     FM280400 29015KT P6SM FEW015=

USA.gov is the U.S. government's official web portal to all federal, state and local government web resources and services.